St. George, Utah Weather observations

Data are for observation ending at time listed.
 Day   Time    Ave.   Ave.  Ave.  Vector   Max.   Stn.    Total    Solar   Ave.  
  of    of     Air    Rel.  Wind   Wind    Wind   Baro.  Precip.   Rad.    Soil  
Year   Day     Temp.  Hum.  Speed  Dir.    Gust   Pres.                    Temp. 
2016   (MST)    F      %     mph   deg.    mph     mb.     in.     W/m2     F   
------------------------------------------------------------------------------
 205    4:20   85.6    25    3.3    62      9.1   916.7    0.00       0    87.0
 205    4:30   85.1    26    2.5    49      5.6   916.7    0.00       0    87.0
 205    4:40   85.3    26    3.3    56      8.0   916.7    0.00       0    86.9
 205    4:50   85.5    26    3.3    55      8.0   916.8    0.00       0    86.8
 205    5:00   85.4    26    2.2    54      6.2   916.7    0.00       0    86.7
 205    5:10   85.4    26    1.9    62      4.7   916.8    0.00       0    86.6
 205    5:20   85.1    26    1.3    76      4.3   916.9    0.00       0    86.6
 205    5:30   83.9    28    0.5   226      1.6   917.0    0.00       3    86.5
 205    5:40   81.9    31    1.2   230      2.4   917.1    0.00       3    86.4
 205    5:50   80.4    33    0.5   326      1.6   917.2    0.00       8    86.4
 205    6:00   79.5    35    0.5   336      1.6   917.4    0.00      12    86.3
 205    6:10   79.4    36    0.4   106      2.0   917.5    0.00      24    86.3
 205    6:20   80.6    32    1.3    10      2.7   917.5    0.00      48    86.2
 205    6:30   82.6    31    2.6   353      4.3   917.6    0.00      76    86.1
 205    6:40   84.4    30    1.1   343      2.0   917.7    0.00     111    86.0
 205    6:50   85.7    28    1.2    41      3.4   917.8    0.00     141    86.0
 205    7:00   85.7    27    1.2    50      3.7   917.8    0.00     170    85.9
 205    7:10   85.7    27    1.3    60      3.5   917.9    0.00     200    85.8
 205    7:20   86.3    27    1.1    79      2.6   917.9    0.00     231    85.8
 205    7:30   86.6    26    1.6    66      5.0   918.0    0.00     263    85.7
 205    7:40   86.0    26    2.6    69      7.7   918.1    0.00     297    85.7
 205    7:50   86.9    26    2.4    68      8.0   918.1    0.00     332    85.6
 205    8:00   87.8    25    2.3    72      6.0   918.1    0.00     364    85.6
 205    8:10   88.3    24    2.1    98      4.7   918.0    0.00     398    85.6
 205    8:20   89.0    24    2.4   124      5.3   918.0    0.00     430    85.5
 205    8:30   90.1    23    1.3    98      3.4   918.0    0.00     464    85.4
 205    8:40   91.3    22    1.7    93      4.7   918.0    0.00     495    85.4
 205    8:50   91.2    22    1.5    76      3.8   917.9    0.00     527    85.3
 205    9:00   91.6    22    1.7   113      3.8   917.8    0.00     558    85.3
 205    9:10   92.6    21    1.4    93      2.9   917.7    0.00     588    85.3
 205    9:20   93.2    20    1.1   162      4.5   917.6    0.00     616    85.3
 205    9:30   94.3    20    0.8   119      3.4   917.5    0.00     642    85.4
 205    9:40   94.1    20    0.9   163      3.3   917.4    0.00     670    85.3
 205    9:50   94.3    20    0.6   189      3.7   917.3    0.00     695    85.4
 205   10:00   95.9    19    0.1   156      2.6   917.4    0.00     717    85.4
 205   10:10   97.0    19    0.0   182      0.7   917.3    0.00     739    85.5
 205   10:20   97.4    19    0.3   236      3.1   917.2    0.00     761    85.6
 205   10:30   98.1    18    0.0     0      0.0   917.0    0.00     783    85.7
 205   10:40   97.4    18    0.6   167      3.4   917.0    0.00     804    85.7
 205   10:50   97.2    19    0.3    71      3.0   916.8    0.00     824    85.8
 205   11:00   97.7    18    0.9   167      5.6   916.7    0.00     845    85.9
 205   11:10   98.8    17    0.6   192      3.4   916.6    0.00     860    86.0
 205   11:20   98.2    16    0.5   192      2.9   916.5    0.00     876    86.2
 205   11:30  100.1    15    0.0     0      0.0   916.3    0.00     887    86.4
 205   11:40  100.8    14    0.0    56      0.2   916.2    0.00     897    86.5
 205   11:50  101.1    13    1.1   182      6.4   916.1    0.00     907    86.7
 205   12:00  100.2    14    0.5   255      3.2   916.0    0.00     915    86.9
 205   12:10  100.7    13    0.5    67      4.8   915.9    0.00     921    87.0
 205   12:20  101.5    12    0.0    53      1.5   915.9    0.00     929    87.3
 205   12:30  101.4    13    0.1   338      2.7   915.8    0.00     935    87.4
 205   12:40  102.6    12    0.1    36      2.7   915.6    0.00     935    87.6
 205   12:50  103.2    11    0.8   202      5.3   915.3    0.00     936    87.9
 205   13:00  103.1    12    0.7   142      4.7   915.1    0.00     942    88.1
 205   13:10  104.9    10    1.6   235      7.0   915.0    0.00     942    88.3
 205   13:20  105.4     9    3.2   251     13.0   914.9    0.00     939    88.6
 205   13:30  105.7     9    2.3   240      9.2   914.8    0.00     937    88.8
 205   13:40  106.2     9    3.3   237     14.3   914.6    0.00     930    89.0
 205   13:50  105.7    10    5.0   220     16.3   914.5    0.00     926    89.3
 205   14:00  106.2     9    2.0   274     11.5   914.3    0.00     916    89.5
 205   14:10  106.4     9    3.8   252     12.3   914.2    0.00     906    89.7
 205   14:20  106.8     9    3.1   246      9.6   914.1    0.00     893    89.9
 205   14:30  106.3     9    4.7   236     11.2   914.1    0.00     881    90.1
 205   14:40  106.5     9    4.4   244     17.8   914.0    0.00     867    90.3
 205   14:50  106.6     9    4.2   249     10.9   913.8    0.00     851    90.5
 205   15:00  107.0     9    2.3   246      9.3   913.6    0.00     830    90.6
 205   15:10  107.3     9    5.4   219     11.2   913.5    0.00     811    90.8
 205   15:20  106.7     9    4.2   242     14.2   913.3    0.00     794    90.9
 205   15:30  106.7     9    4.4   248     14.2   913.2    0.00     771    91.0
 205   15:40  107.5     8    4.6   217     11.6   913.1    0.00     748    91.1
 205   15:50  107.3     8    6.3   234     16.7   912.9    0.00     725    91.3
 205   16:00  107.7     8    3.8   241     13.1   912.8    0.00     698    91.4
 205   16:10  107.6     8    2.6   258      8.8   912.7    0.00     672    91.5
 205   16:20  107.5     8    4.1   249     12.4   912.6    0.00     646    91.6
 205   16:30  107.3     9    3.6   251      9.6   912.5    0.00     616    91.7
 205   16:40  107.8     9    4.5   240     13.8   912.3    0.00     586    91.8
 205   16:50  107.0     9    4.7   239     13.3   912.2    0.00     552    91.9
 205   17:00  107.2     9    4.1   246     12.1   912.1    0.00     523    92.0
 205   17:10  106.9     9    5.4   234     15.1   912.0    0.00     496    92.0
 205   17:20  106.6     9    6.1   238     15.5   911.9    0.00     461    92.1
 205   17:30  106.2     8    6.8   238     13.0   911.9    0.00     434    92.2
 205   17:40  106.6     8    3.8   244     14.6   911.8    0.00     402    92.2
 205   17:50  106.2     8    6.0   240     13.3   911.8    0.00     366    92.3
 205   18:00  105.8     8    6.8   231     14.7   911.7    0.00     334    92.3
 205   18:10  105.4     8    4.9   243     10.2   911.8    0.00     294    92.3
 205   18:20  105.0     8    3.9   247     10.7   911.8    0.00      56    92.3
 205   18:30  104.6     9    3.7   249      8.7   911.7    0.00      39    92.2
 205   18:40  104.6     9    5.8   234     10.9   911.7    0.00      36    92.1
 205   18:50  104.6     9    5.7   226     10.1   911.6    0.00      31    92.2
 205   19:00  104.3     9    4.8   228     11.0   911.6    0.00      24    92.2
 205   19:10  103.7     9    4.3   244      9.2   911.7    0.00      22    92.1
 205   19:20  103.4     9    4.7   237     11.3   911.8    0.00      19    92.0
 205   19:30  102.7    10    2.7   244      6.0   911.8    0.00      16    92.0
 205   19:40  101.9    10    1.8   252      4.8   911.9    0.00      10    91.9
 205   19:50  100.8    10    1.7   245      5.6   911.9    0.00       6    91.9
 205   20:00  100.6    10    1.6   256      6.1   912.0    0.00       3    91.8
 205   20:10   99.9    10    1.1   268      3.6   912.1    0.00       3    91.8
 205   20:20   99.2    10    0.7   270      3.6   912.1    0.00       1    91.7
 205   20:30   98.7    10    1.2   264      6.4   912.1    0.00       0    91.6
 205   20:40   98.1    10    1.1   300      3.7   912.2    0.00       0    91.5
 205   20:50   98.2    10    1.1   262      3.6   912.3    0.00       0    91.5
 205   21:00   97.5    11    0.7   246      2.2   912.4    0.00       0    91.4
 205   21:10   95.5    12    0.2   258      1.4   912.5    0.00       0    91.3
 205   21:20   93.8    14    0.0     0      0.0   912.7    0.00       0    91.3
 205   21:30   92.9    15    0.2    64      1.2   912.9    0.00       0    91.2
 205   21:40   92.0    16    0.6    71      1.4   913.0    0.00       0    91.1
 205   21:50   91.6    16    1.1   127      3.4   913.1    0.00       0    91.1
 205   22:00   92.5    14    0.8    27      1.9   913.2    0.00       0    91.0
 205   22:10   91.9    15    0.9    10      2.0   913.2    0.00       0    90.9
 205   22:20   91.3    15    0.0   206      0.4   913.2    0.00       0    90.8
 205   22:30   90.2    16    0.6     9      2.3   913.2    0.00       0    90.7
 205   22:40   89.9    16    0.3    20      1.4   913.3    0.00       0    90.6
 205   22:50   89.2    18    1.0   156      2.8   913.3    0.00       0    90.5
 205   23:00   91.0    14    1.2    42      3.1   913.4    0.00       0    90.4
 205   23:10   91.8    14    1.9    58      3.3   913.4    0.00       0    90.3
 205   23:20   91.6    14    1.0    52      2.7   913.5    0.00       0    90.2
 205   23:30   90.8    15    0.6    49      2.8   913.6    0.00       0    90.2
 205   23:40   89.0    17    0.1   212      0.9   913.6    0.00       0    90.1
 205   23:50   88.0    18    0.8   281      3.7   913.7    0.00       0    90.0
 206    0:00   87.2    20    0.2    75      1.2   913.7    0.00       0    89.9
 206    0:10   86.6    20    0.2    19      1.3   913.8    0.00       0    89.8
 206    0:20   86.3    20    0.4   275      2.1   913.9    0.00       0    89.7
 206    0:30   86.4    20    1.0   274      3.4   914.0    0.00       0    89.6
 206    0:40   87.0    19    1.6   358      4.2   914.0    0.00       0    89.5
 206    0:50   88.1    18    1.3   214      2.7   914.0    0.00       0    89.5
 206    1:00   86.7    20    1.5   150      3.4   913.9    0.00       0    89.4
 206    1:10   86.8    21    0.8   255      2.7   914.0    0.00       0    89.3
 206    1:20   85.6    23    0.4   217      2.3   914.0    0.00       0    89.2
 206    1:30   84.9    23    1.9   321      3.6   914.0    0.00       0    89.1
 206    1:40   84.7    24    0.9   326      2.6   914.0    0.00       0    89.0
 206    1:50   83.9    25    0.5   184      1.7   914.0    0.00       0    88.9
 206    2:00   83.4    25    1.0   310      2.0   914.0    0.00       0    88.8
 206    2:10   83.6    23    1.2   339      3.0   914.0    0.00       0    88.7
 206    2:20   83.5    24    0.6   336      3.1   914.0    0.00       0    88.6
 206    2:30   82.6    26    0.7   344      1.8   914.0    0.00       0    88.6
 206    2:40   82.1    26    0.1   128      1.2   914.0    0.00       0    88.5
 206    2:50   82.0    26    1.2   291      3.2   914.2    0.00       0    88.4
 206    3:00   81.9    26    0.6   358      2.0   914.1    0.00       0    88.4
 206    3:10   81.4    26    0.2   242      2.2   914.2    0.00       0    88.3
 206    3:20   81.4    26    1.0   354      3.0   914.2    0.00       0    88.2
 206    3:30   81.6    26    1.3   242      3.3   914.3    0.00       0    88.1
 206    3:40   81.5    27    0.2    76      1.8   914.4    0.00       0    88.0
 206    3:50   80.9    28    0.7   298      1.6   914.6    0.00       0    87.9
 206    4:00   80.5    27    0.3   193      1.2   914.6    0.00       0    87.8
 206    4:10   80.7    27    0.0    58      0.7   914.6    0.00       0    87.7

Return to St. George, Utah graphs page.


Western Regional Climate Center,wrcc@dri.edu